Time;durP1;ratioP1;P1;durP2;ratioP2;P2;SDS_P1;SDS_P2;PMS_P1;PMS_P2;Temp;Humidity;BMP_temperature;BMP_pressure;BME280_temperature;BME280_humidity;BME280_pressure;Samples;Min_cycle;Max_cycle;Signal;HPM_P1;HPM_P2
2022/04/18 00:02:04;;;;;;;11.75;7.35;;;;;;;5.93;57.51;100773.66;5055468;28;20026;-77
2022/04/18 00:04:29;;;;;;;11.85;7.65;;;;;;;5.88;58.67;100767.50;5055431;28;20122;-77
2022/04/18 00:06:54;;;;;;;12.95;7.40;;;;;;;5.84;58.38;100768.41;5073286;28;20024;-77
2022/04/18 00:09:20;;;;;;;12.75;7.32;;;;;;;5.84;59.33;100773.69;5073477;28;20020;-77
2022/04/18 00:11:45;;;;;;;13.13;8.10;;;;;;;5.77;59.40;100769.31;5073914;28;20107;-78
2022/04/18 00:14:11;;;;;;;12.60;7.65;;;;;;;5.74;59.72;100771.94;5089378;22;21699;-76
2022/04/18 00:16:36;;;;;;;13.02;6.93;;;;;;;5.74;59.13;100769.31;5092928;28;20061;-76
2022/04/18 00:19:01;;;;;;;11.57;7.28;;;;;;;5.70;59.87;100765.75;5074812;28;20441;-76
2022/04/18 00:21:27;;;;;;;11.52;7.30;;;;;;;5.64;59.88;100766.69;5092873;28;20020;-76
2022/04/18 00:23:52;;;;;;;10.57;7.13;;;;;;;5.56;60.77;100760.50;5074961;28;20027;-76
2022/04/18 00:26:18;;;;;;;11.13;6.78;;;;;;;5.52;61.46;100766.66;5093044;28;20016;-76
2022/04/18 00:28:43;;;;;;;11.30;7.38;;;;;;;5.44;62.05;100759.63;5092727;28;20020;-77
2022/04/18 00:31:08;;;;;;;12.85;7.57;;;;;;;5.46;61.90;100759.63;5074667;28;20457;-76
2022/04/18 00:33:34;;;;;;;11.35;7.15;;;;;;;5.46;61.61;100757.00;5092839;28;20435;-76
2022/04/18 00:36:00;;;;;;;12.48;7.93;;;;;;;5.43;62.19;100749.94;5092754;28;20020;-76
2022/04/18 00:38:26;;;;;;;13.30;7.35;;;;;;;5.36;61.77;100748.19;5075409;28;20023;-76
2022/04/18 00:40:51;;;;;;;12.93;7.57;;;;;;;5.34;62.50;100741.97;5093263;28;20020;-76
2022/04/18 00:43:17;;;;;;;12.18;7.05;;;;;;;5.29;63.15;100749.03;5092983;28;20020;-76
2022/04/18 00:45:42;;;;;;;10.02;6.65;;;;;;;5.32;62.45;100749.03;5092857;28;20447;-76
2022/04/18 00:48:07;;;;;;;11.43;6.57;;;;;;;5.33;62.45;100745.53;5096899;28;20020;-76
2022/04/18 00:50:35;;;;;;;13.00;7.18;;;;;;;5.36;63.06;100740.22;5078735;28;20028;-76
2022/04/18 00:53:02;;;;;;;12.43;6.88;;;;;;;5.41;63.04;100743.72;5097086;28;20024;-76
2022/04/18 00:55:28;;;;;;;13.00;7.03;;;;;;;5.42;63.20;100745.50;5096820;28;20024;-76
2022/04/18 00:57:55;;;;;;;10.75;6.43;;;;;;;5.42;63.81;100745.50;5078370;28;20016;-76
2022/04/18 01:00:21;;;;;;;14.60;7.05;;;;;;;5.38;65.37;100743.75;5096711;28;20051;-77
2022/04/18 01:02:46;;;;;;;10.32;6.43;;;;;;;5.38;65.66;100729.63;5078295;28;20020;-76
2022/04/18 01:05:11;;;;;;;13.30;7.00;;;;;;;5.34;65.78;100723.44;5096461;28;20027;-76
2022/04/18 01:07:38;;;;;;;10.30;6.72;;;;;;;5.28;67.03;100728.75;5096979;28;20024;-76
2022/04/18 01:10:05;;;;;;;10.63;6.20;;;;;;;5.27;67.27;100726.97;5078269;28;20028;-76
2022/04/18 01:12:30;;;;;;;11.27;6.25;;;;;;;5.13;66.72;100727.84;5078403;28;20027;-76
2022/04/18 01:14:55;;;;;;;11.15;6.75;;;;;;;5.10;67.85;100722.59;5096134;28;20059;-76
2022/04/18 01:17:21;;;;;;;11.25;6.70;;;;;;;5.00;69.06;100717.28;5096801;28;20111;-76
2022/04/18 01:19:46;;;;;;;10.52;6.55;;;;;;;4.94;71.25;100722.59;5096691;28;20105;-76
2022/04/18 01:22:15;;;;;;;12.93;7.25;;;;;;;4.88;69.84;100725.22;5096372;28;20020;-76
2022/04/18 01:30:10;;;;;;;11.30;7.60;;;;;;;4.84;69.84;100723.47;5096086;28;20397;-76
2022/04/18 01:32:35;;;;;;;12.85;7.65;;;;;;;4.81;70.87;100719.03;5096206;28;20024;-77
2022/04/18 01:35:01;;;;;;;12.20;8.05;;;;;;;4.82;70.78;100718.16;5095687;28;20020;-76
2022/04/18 01:37:26;;;;;;;14.10;8.23;;;;;;;4.75;71.51;100711.97;5095891;28;20031;-76
2022/04/18 01:39:51;;;;;;;13.45;8.50;;;;;;;4.68;71.27;100705.81;5095826;28;20036;-76
2022/04/18 01:42:16;;;;;;;12.50;8.10;;;;;;;4.63;70.65;100707.56;5095830;28;20427;-76
2022/04/18 01:44:42;;;;;;;11.43;8.52;;;;;;;4.61;70.18;100708.44;5095863;28;20024;-76
2022/04/18 01:47:07;;;;;;;13.40;8.20;;;;;;;4.60;70.19;100711.94;5095653;28;20433;-76
2022/04/18 01:49:33;;;;;;;12.18;7.88;;;;;;;4.57;70.33;100708.44;5077515;28;20028;-76
2022/04/18 01:51:58;;;;;;;13.40;8.68;;;;;;;4.55;69.70;100711.94;5095688;28;20035;-76
2022/04/18 01:54:23;;;;;;;14.45;8.57;;;;;;;4.50;70.54;100706.66;5095744;28;20036;-76
2022/04/18 01:56:49;;;;;;;15.10;8.73;;;;;;;4.52;71.11;100699.59;5095738;28;20024;-76
2022/04/18 01:59:14;;;;;;;11.82;8.15;;;;;;;4.41;72.25;100706.63;5095533;28;20136;-76
2022/04/18 02:01:40;;;;;;;13.88;9.10;;;;;;;4.42;72.72;100703.09;5095921;28;20027;-76
2022/04/18 02:04:06;;;;;;;12.68;8.70;;;;;;;4.42;71.75;100703.09;5095636;28;20031;-76
2022/04/18 02:06:31;;;;;;;14.77;9.32;;;;;;;4.38;73.13;100701.34;5095459;28;20087;-76
2022/04/18 02:08:57;;;;;;;14.45;9.23;;;;;;;4.39;74.90;100697.81;5095452;28;20031;-77
2022/04/18 02:11:22;;;;;;;15.52;10.10;;;;;;;4.39;75.70;100700.44;5095044;28;20031;-77
2022/04/18 02:13:48;;;;;;;14.90;9.43;;;;;;;4.33;76.46;100686.34;5095514;28;20024;-77
2022/04/18 02:16:13;;;;;;;16.38;10.35;;;;;;;4.31;77.08;100687.22;5095330;28;20503;-77
2022/04/18 02:18:38;;;;;;;15.43;9.77;;;;;;;4.25;78.26;100690.75;5096053;28;20044;-77
2022/04/18 02:21:03;;;;;;;13.43;9.60;;;;;;;4.25;78.53;100688.09;5095196;28;20492;-76
2022/04/18 02:23:29;;;;;;;15.05;9.88;;;;;;;4.22;79.91;100686.34;5095509;28;20036;-76
2022/04/18 02:25:54;;;;;;;14.30;9.35;;;;;;;4.22;81.28;100681.03;5095214;28;20137;-76
2022/04/18 02:28:20;;;;;;;13.77;9.70;;;;;;;4.21;81.34;100683.66;5095332;28;20035;-76
2022/04/18 02:30:45;;;;;;;13.52;8.90;;;;;;;4.19;80.29;100669.56;5076735;28;20016;-76
2022/04/18 02:33:10;;;;;;;13.88;9.02;;;;;;;4.13;80.45;100671.31;5103962;28;20024;-76
2022/04/18 02:35:36;;;;;;;14.27;8.05;;;;;;;4.16;79.84;100667.78;5098486;28;20030;-76
2022/04/18 02:38:01;;;;;;;11.02;8.27;;;;;;;4.16;79.55;100669.56;5076645;28;20024;-76
2022/04/18 02:40:26;;;;;;;12.82;7.78;;;;;;;4.20;79.89;100660.78;5094846;28;20066;-76
2022/04/18 02:42:52;;;;;;;13.60;8.02;;;;;;;4.20;79.72;100652.84;5095044;28;20077;-76
2022/04/18 02:45:21;;;;;;;11.90;8.40;;;;;;;4.21;80.06;100651.94;5094803;28;20144;-76
2022/04/18 02:47:47;;;;;;;12.10;7.80;;;;;;;4.19;80.77;100653.72;5094455;28;20031;-76
2022/04/18 02:50:13;;;;;;;14.80;8.73;;;;;;;4.16;81.41;100648.41;5094698;28;20020;-76
2022/04/18 02:52:39;;;;;;;10.07;7.32;;;;;;;4.10;80.28;100649.25;5076077;28;20027;-76
2022/04/18 02:55:05;;;;;;;13.15;7.65;;;;;;;4.07;81.12;100649.28;5094101;28;20027;-76
2022/04/18 02:57:31;;;;;;;12.43;8.00;;;;;;;3.96;81.52;100642.19;5075967;28;20529;-76
2022/04/18 02:59:56;;;;;;;11.75;7.72;;;;;;;4.00;81.34;100643.97;5094387;28;20158;-76
2022/04/18 03:02:21;;;;;;;12.57;7.68;;;;;;;3.97;82.03;100637.81;5094549;28;20042;-76
2022/04/18 03:04:46;;;;;;;12.82;8.30;;;;;;;3.93;83.01;100634.25;5094318;28;20027;-76
2022/04/18 03:07:12;;;;;;;13.23;8.32;;;;;;;3.88;83.85;100644.81;5094407;28;20027;-76
2022/04/18 03:09:37;;;;;;;11.93;8.27;;;;;;;3.89;85.51;100636.00;5094158;28;20019;-76
2022/04/18 03:12:03;;;;;;;14.50;8.85;;;;;;;3.83;83.73;100633.34;5094637;28;20476;-76
2022/04/18 03:14:29;;;;;;;16.92;9.13;;;;;;;3.74;85.45;100631.53;5094027;28;20032;-76
2022/04/18 03:16:55;;;;;;;17.05;10.10;;;;;;;3.72;85.19;100630.66;5094368;28;20040;-76
2022/04/18 03:19:20;;;;;;;16.95;9.82;;;;;;;3.75;85.62;100635.06;5075876;28;20020;-76
2022/04/18 03:21:46;;;;;;;16.20;10.00;;;;;;;3.75;85.71;100635.97;5094042;28;20027;-77
2022/04/18 03:24:11;;;;;;;17.50;10.85;;;;;;;3.73;86.10;100634.19;5093872;28;20036;-77
2022/04/18 03:26:36;;;;;;;15.77;9.70;;;;;;;3.67;86.75;100625.38;5093472;28;20030;-77
2022/04/18 03:29:01;;;;;;;14.70;10.23;;;;;;;3.68;87.01;100627.13;5093740;28;20421;-77
2022/04/18 03:31:27;;;;;;;14.65;9.85;;;;;;;3.66;87.14;100630.66;5094151;28;20026;-77
2022/04/18 03:33:52;;;;;;;15.45;10.27;;;;;;;3.60;87.12;100627.97;5094243;28;20035;-77
2022/04/18 03:41:45;;;;;;;17.25;10.82;;;;;;;3.40;89.69;100631.41;5093905;28;20389;-77
2022/04/18 03:44:11;;;;;;;18.30;11.23;;;;;;;3.40;89.98;100621.69;5093409;28;20019;-77
2022/04/18 03:46:37;;;;;;;16.98;10.90;;;;;;;3.33;89.64;100620.81;5075307;28;20024;-77
2022/04/18 03:49:02;;;;;;;17.63;11.48;;;;;;;3.34;90.40;100632.25;5075402;28;20028;-76
2022/04/18 03:51:28;;;;;;;16.98;11.32;;;;;;;3.32;90.65;100623.44;5075870;28;20020;-76
2022/04/18 03:53:53;;;;;;;16.63;11.15;;;;;;;3.32;90.79;100612.88;5093395;28;20035;-76
2022/04/18 03:56:18;;;;;;;15.02;10.75;;;;;;;3.33;91.13;100619.91;5092976;28;20092;-76
2022/04/18 03:58:44;;;;;;;18.98;11.55;;;;;;;3.28;90.85;100622.53;5093095;28;20020;-76
2022/04/18 04:01:09;;;;;;;17.27;10.70;;;;;;;3.26;91.15;100618.13;5075080;28;20103;-77
2022/04/18 04:03:34;;;;;;;16.67;10.70;;;;;;;3.26;91.54;100621.66;5093167;28;20093;-76
2022/04/18 04:06:00;;;;;;;15.85;11.02;;;;;;;3.21;91.42;100613.72;5093259;28;20027;-76
2022/04/18 04:08:26;;;;;;;16.40;10.55;;;;;;;3.18;91.42;100618.97;5093340;28;20024;-76
2022/04/18 04:10:54;;;;;;;16.73;10.70;;;;;;;3.16;90.85;100623.34;5074722;28;20035;-76
2022/04/18 04:13:20;;;;;;;19.23;10.88;;;;;;;3.14;91.55;100614.53;5093174;28;20024;-76
2022/04/18 04:15:46;;;;;;;15.77;9.85;;;;;;;3.13;92.14;100610.13;5092678;28;20038;-76
2022/04/18 04:18:11;;;;;;;15.75;10.05;;;;;;;3.12;92.67;100616.28;5092866;28;20061;-76
2022/04/18 04:20:36;;;;;;;16.20;10.13;;;;;;;3.06;92.60;100610.97;5092294;28;20059;-76
2022/04/18 04:23:02;;;;;;;13.63;8.93;;;;;;;3.06;91.49;100616.25;5074561;28;20024;-77
2022/04/18 04:25:28;;;;;;;15.55;9.38;;;;;;;3.09;92.06;100616.28;5093423;28;20063;-78
2022/04/18 04:27:53;;;;;;;13.38;8.70;;;;;;;3.11;91.51;100611.88;5093399;28;20039;-77
2022/04/18 04:30:18;;;;;;;13.20;8.80;;;;;;;3.14;91.46;100609.28;5093679;28;20024;-76
2022/04/18 04:32:44;;;;;;;16.55;9.05;;;;;;;3.11;92.03;100612.78;5093636;28;20051;-76
2022/04/18 04:35:09;;;;;;;14.30;8.80;;;;;;;3.10;91.33;100610.09;5094420;28;20028;-77
2022/04/18 04:37:34;;;;;;;14.13;9.35;;;;;;;3.09;91.96;100606.56;5094412;28;20095;-77
2022/04/18 04:40:00;;;;;;;13.50;8.63;;;;;;;3.09;91.44;100603.09;5094418;28;20400;-78
2022/04/18 04:42:25;;;;;;;13.15;9.15;;;;;;;3.11;92.01;100609.25;5094389;28;20092;-77
2022/04/18 04:44:50;;;;;;;13.25;9.00;;;;;;;3.10;92.07;100600.44;5094721;28;20469;-77
2022/04/18 04:47:16;;;;;;;15.82;9.32;;;;;;;3.10;91.71;100602.19;5094744;28;20024;-77
2022/04/18 04:49:41;;;;;;;14.82;8.90;;;;;;;3.15;91.79;100603.09;5095005;28;20091;-78
2022/04/18 04:52:07;;;;;;;15.07;9.20;;;;;;;3.13;92.06;100604.84;5076341;28;20036;-78
2022/04/18 04:54:32;;;;;;;18.00;9.32;;;;;;;3.16;92.30;100606.63;5094147;28;20548;-77
2022/04/18 04:56:58;;;;;;;17.27;10.38;;;;;;;3.09;94.35;100605.72;5094809;28;20107;-77
2022/04/18 04:59:23;;;;;;;15.27;10.05;;;;;;;3.09;94.14;100606.56;5094717;28;20382;-78
2022/04/18 05:01:48;;;;;;;16.23;9.73;;;;;;;3.10;93.33;100602.19;5094497;28;20058;-77
2022/04/18 05:04:14;;;;;;;13.10;9.05;;;;;;;3.12;93.09;100601.31;5094561;28;20115;-77
2022/04/18 05:06:40;;;;;;;14.82;9.80;;;;;;;3.16;93.02;100598.72;5094006;28;20051;-76
2022/04/18 05:09:06;;;;;;;17.95;9.35;;;;;;;3.21;93.08;100605.78;5075192;28;20020;-77
2022/04/18 05:11:32;;;;;;;13.18;8.95;;;;;;;3.28;93.72;100609.34;5093973;28;20487;-77
2022/04/18 05:13:57;;;;;;;14.98;9.32;;;;;;;3.30;94.11;100599.66;5093967;28;20024;-77
2022/04/18 05:16:23;;;;;;;17.73;9.75;;;;;;;3.35;94.19;100607.63;5095047;28;20027;-78
2022/04/18 05:18:49;;;;;;;14.32;9.23;;;;;;;3.36;93.83;100604.09;5078501;28;20051;-79
2022/04/18 05:21:14;;;;;;;15.15;9.35;;;;;;;3.37;94.69;100592.66;5095797;28;20078;-78
2022/04/18 05:23:39;;;;;;;15.43;9.80;;;;;;;3.37;94.30;100600.59;5078041;28;20389;-78
2022/04/18 05:26:05;;;;;;;16.58;9.32;;;;;;;3.38;94.31;100597.06;5095444;28;20024;-77
2022/04/18 05:28:30;;;;;;;14.75;8.90;;;;;;;3.40;94.80;100599.72;5094732;28;20039;-77
2022/04/18 05:30:55;;;;;;;15.52;9.30;;;;;;;3.42;94.71;100598.84;5094377;28;20380;-77
2022/04/18 05:33:21;;;;;;;14.95;9.15;;;;;;;3.43;95.13;100600.59;5096586;28;20024;-77
2022/04/18 05:35:47;;;;;;;12.35;9.35;;;;;;;3.43;98.92;100608.53;5098220;28;20077;-77
2022/04/18 05:38:14;;;;;;;15.32;9.73;;;;;;;3.45;99.88;100614.69;5098174;28;20070;-77
2022/04/18 05:40:40;;;;;;;16.35;10.60;;;;;;;3.48;100.00;100613.81;5080070;28;20030;-77
2022/04/18 05:43:05;;;;;;;16.33;9.93;;;;;;;3.52;100.00;100614.72;5098992;28;20107;-77
2022/04/18 05:45:31;;;;;;;14.82;9.40;;;;;;;3.51;100.00;100612.94;5096779;28;20016;-76
2022/04/18 05:47:56;;;;;;;13.63;9.25;;;;;;;3.56;100.00;100608.56;5098002;28;20024;-78
2022/04/18 05:50:22;;;;;;;13.88;9.85;;;;;;;3.59;100.00;100605.97;5098645;28;20107;-77
2022/04/18 05:52:47;;;;;;;15.77;9.48;;;;;;;3.67;100.00;100609.50;5098630;28;20043;-78
2022/04/18 05:55:12;;;;;;;13.60;8.60;;;;;;;3.75;99.66;100611.28;5098792;28;20099;-80
2022/04/18 05:57:38;;;;;;;12.63;8.70;;;;;;;3.84;97.59;100607.81;5098539;28;20016;-77
2022/04/18 06:00:04;;;;;;;14.02;8.70;;;;;;;3.94;99.11;100611.38;5099218;28;20473;-78
2022/04/18 06:02:29;;;;;;;13.10;9.18;;;;;;;4.05;97.66;100608.72;5081262;28;20104;-78
2022/04/18 06:04:55;;;;;;;12.55;9.10;;;;;;;4.13;97.13;100607.88;5098756;28;20024;-78
2022/04/18 06:07:20;;;;;;;14.35;9.07;;;;;;;4.18;95.86;100612.28;5098913;28;20028;-78
2022/04/18 06:09:45;;;;;;;13.98;8.02;;;;;;;4.26;93.45;100615.81;5098650;28;20556;-78
2022/04/18 06:12:11;;;;;;;13.88;9.27;;;;;;;4.33;92.98;100616.75;5080151;28;20024;-78
2022/04/18 06:14:36;;;;;;;14.60;8.80;;;;;;;4.43;91.26;100621.13;5117416;22;20047;-74
2022/04/18 06:17:01;;;;;;;14.02;9.15;;;;;;;4.54;90.77;100612.31;5077567;28;20038;-75
2022/04/18 06:19:27;;;;;;;13.52;9.02;;;;;;;4.61;90.88;100613.22;5095651;28;20016;-74
2022/04/18 06:21:52;;;;;;;13.15;8.98;;;;;;;4.66;90.62;100608.81;5095873;28;20030;-75
2022/04/18 06:24:18;;;;;;;13.35;8.93;;;;;;;4.76;91.62;100610.56;5095547;28;20073;-74
2022/04/18 06:26:44;;;;;;;14.57;9.43;;;;;;;4.84;93.03;100615.84;5077347;28;20024;-74
2022/04/18 06:29:09;;;;;;;11.48;8.20;;;;;;;4.99;90.90;100607.00;5095431;28;20028;-75
2022/04/18 06:31:35;;;;;;;13.18;8.05;;;;;;;5.18;88.39;100606.09;5095446;28;20063;-74
2022/04/18 06:34:00;;;;;;;13.60;8.70;;;;;;;5.34;88.59;100610.44;5077241;28;20388;-75
2022/04/18 06:36:25;;;;;;;12.15;7.88;;;;;;;5.47;86.76;100611.28;5077162;28;20110;-75
2022/04/18 06:38:50;;;;;;;11.05;7.50;;;;;;;5.59;85.94;100617.44;5095362;28;20069;-75
2022/04/18 06:41:16;;;;;;;11.68;7.95;;;;;;;5.75;85.62;100614.69;5077120;28;20077;-74
2022/04/18 06:43:41;;;;;;;10.73;7.93;;;;;;;5.90;85.67;100622.56;5094636;28;20032;-75
2022/04/18 06:46:06;;;;;;;9.10;7.10;;;;;;;5.99;85.08;100620.78;5077061;28;20028;-75
2022/04/18 06:48:32;;;;;;;10.80;7.43;;;;;;;6.18;84.33;100616.28;5095532;28;20020;-74
2022/04/18 06:50:57;;;;;;;10.90;7.43;;;;;;;6.33;81.89;100617.94;5076824;28;20130;-74
2022/04/18 06:53:22;;;;;;;11.02;7.13;;;;;;;6.44;82.36;100619.66;5076936;28;20062;-74
2022/04/18 06:58:32;;;;;;;12.00;7.38;;;;;;;6.76;80.88;100618.50;5095210;28;20500;-74
2022/04/18 07:00:57;;;;;;;9.10;6.15;;;;;;;6.89;80.91;100631.66;5076697;28;20032;-75
2022/04/18 07:03:23;;;;;;;11.57;6.82;;;;;;;7.04;79.51;100620.00;5076656;28;20024;-74
2022/04/18 07:05:48;;;;;;;10.18;7.18;;;;;;;7.13;79.34;100619.94;5076889;28;20026;-74
2022/04/18 07:08:14;;;;;;;10.13;7.07;;;;;;;7.22;79.38;100615.41;5076534;28;20446;-74
2022/04/18 07:10:39;;;;;;;12.75;7.22;;;;;;;7.37;79.76;100615.22;5076597;28;20028;-75
2022/04/18 07:13:04;;;;;;;10.20;6.53;;;;;;;7.48;80.10;100620.41;5094595;28;20027;-75
2022/04/18 07:15:30;;;;;;;10.25;6.55;;;;;;;7.66;79.53;100621.09;5076168;28;20546;-75
2022/04/18 07:17:55;;;;;;;10.63;6.55;;;;;;;7.66;78.64;100623.75;5094600;28;20465;-75
2022/04/18 07:20:20;;;;;;;11.02;6.22;;;;;;;7.77;76.96;100618.31;5094540;28;20020;-75
2022/04/18 07:22:48;;;;;;;11.90;7.18;;;;;;;7.81;78.76;100628.00;5094937;28;20028;-75
2022/04/18 07:25:14;;;;;;;11.35;6.95;;;;;;;7.90;77.95;100621.69;5095357;28;20020;-75
2022/04/18 07:27:39;;;;;;;10.30;6.38;;;;;;;8.01;77.12;100625.97;5076521;28;20020;-75
2022/04/18 07:30:05;;;;;;;9.90;6.03;;;;;;;8.16;76.43;100631.09;5076197;28;20473;-75
2022/04/18 07:32:31;;;;;;;9.02;5.70;;;;;;;8.31;73.12;100626.44;5076103;28;20389;-75
2022/04/18 07:35:03;;;;;;;8.32;5.38;;;;;;;8.43;72.47;100632.44;5076068;28;20020;-75
2022/04/18 07:37:28;;;;;;;8.10;4.35;;;;;;;8.65;68.18;100626.81;5094319;28;20587;-75
2022/04/18 07:39:53;;;;;;;6.22;4.53;;;;;;;8.88;67.86;100625.56;5076034;28;20111;-75
2022/04/18 07:42:19;;;;;;;6.75;3.75;;;;;;;8.87;66.37;100629.09;5075963;28;20020;-75
2022/04/18 07:44:45;;;;;;;9.10;4.82;;;;;;;8.86;65.40;100619.38;5094031;28;20031;-75
2022/04/18 07:47:10;;;;;;;6.65;4.55;;;;;;;9.03;65.64;100624.41;5075770;28;20016;-76
2022/04/18 07:49:35;;;;;;;7.57;4.45;;;;;;;9.07;67.25;100625.22;5075862;28;20465;-76
2022/04/18 07:52:00;;;;;;;7.07;4.32;;;;;;;9.13;66.69;100622.44;5094245;28;20539;-76
2022/04/18 07:54:26;;;;;;;6.13;4.00;;;;;;;9.37;65.33;100625.56;5075843;28;20024;-76
2022/04/18 07:56:51;;;;;;;7.18;4.50;;;;;;;9.40;65.78;100633.50;5093837;28;20028;-76
2022/04/18 07:59:16;;;;;;;6.95;4.20;;;;;;;9.51;62.97;100630.59;5075838;28;20536;-77
2022/04/18 08:01:43;;;;;;;6.10;4.45;;;;;;;9.63;60.34;100625.94;5095777;28;20023;-78
2022/04/18 08:04:08;;;;;;;6.35;3.78;;;;;;;9.68;62.92;100632.94;5076051;28;20020;-76
2022/04/18 08:06:34;;;;;;;6.15;4.00;;;;;;;9.81;63.10;100632.66;5075969;28;20020;-77
2022/04/18 08:09:00;;;;;;;6.68;3.80;;;;;;;9.72;58.54;100629.28;5093853;28;20043;-78
2022/04/18 08:11:26;;;;;;;6.03;3.78;;;;;;;9.87;60.53;100627.19;5097870;28;20034;-78
2022/04/18 08:13:53;;;;;;;8.57;4.05;;;;;;;10.05;59.45;100622.38;5076685;28;20066;-76
2022/04/18 08:16:19;;;;;;;6.22;3.83;;;;;;;10.01;59.95;100623.34;5075329;28;20070;-76
2022/04/18 08:18:45;;;;;;;7.63;4.20;;;;;;;10.22;60.52;100618.44;5075532;28;20444;-76
2022/04/18 08:21:12;;;;;;;6.68;3.67;;;;;;;10.36;58.43;100621.66;5093897;28;20534;-76
2022/04/18 08:23:38;;;;;;;4.88;3.70;;;;;;;10.38;60.21;100621.63;5075468;28;20153;-76
2022/04/18 08:26:03;;;;;;;7.68;3.88;;;;;;;10.44;57.49;100615.25;5075288;28;20107;-76
2022/04/18 08:28:30;;;;;;;7.88;4.10;;;;;;;10.60;59.11;100622.00;5093369;28;20575;-76
2022/04/18 08:30:56;;;;;;;7.65;4.25;;;;;;;10.69;60.49;100615.56;5093821;28;20028;-76
2022/04/18 08:33:22;;;;;;;6.78;3.90;;;;;;;10.80;56.98;100623.28;5075291;28;20028;-76
2022/04/18 08:35:48;;;;;;;6.15;3.60;;;;;;;10.97;57.54;100618.44;5093578;28;20020;-76
2022/04/18 08:38:13;;;;;;;4.80;3.08;;;;;;;11.03;54.52;100626.31;5075398;28;20020;-76
2022/04/18 08:40:43;;;;;;;6.47;3.47;;;;;;;11.10;57.33;100622.53;5076649;28;20020;-76
2022/04/18 08:43:08;;;;;;;5.32;3.70;;;;;;;11.27;58.14;100619.41;5093248;28;20024;-77
2022/04/18 08:45:36;;;;;;;7.65;3.60;;;;;;;11.50;58.18;100625.91;5075516;28;20042;-74
2022/04/18 08:53:33;;;;;;;6.50;3.97;;;;;;;12.01;56.20;100621.78;5097414;28;19915;-81
2022/04/18 08:56:00;;;;;;;5.85;3.60;;;;;;;12.05;53.46;100620.75;5096438;28;20059;-81
2022/04/18 08:58:29;;;;;;;5.10;3.67;;;;;;;11.99;52.35;100610.22;5078658;28;20062;-82
2022/04/18 09:00:55;;;;;;;6.03;3.55;;;;;;;12.13;52.76;100605.38;5078618;28;20066;-82
2022/04/18 09:03:21;;;;;;;6.55;3.42;;;;;;;12.33;53.44;100609.19;5078438;28;20016;-82
2022/04/18 09:05:46;;;;;;;6.13;3.70;;;;;;;12.45;51.34;100610.59;5079170;28;20020;-82
2022/04/18 09:08:12;;;;;;;4.80;3.33;;;;;;;12.52;52.06;100600.56;5081520;28;20063;-81
2022/04/18 09:10:40;;;;;;;5.72;2.90;;;;;;;12.61;48.12;100608.28;5083313;28;20031;-83
2022/04/18 09:13:14;;;;;;;5.28;3.20;;;;;;;12.83;49.58;100599.50;5101575;28;20028;-81
2022/04/18 09:15:49;;;;;;;4.22;2.55;;;;;;;13.13;47.94;100600.28;5080109;28;20059;-81
2022/04/18 09:18:20;;;;;;;5.40;3.20;;;;;;;13.16;47.06;100595.72;5098467;28;20078;-81
2022/04/18 09:20:47;;;;;;;5.15;3.08;;;;;;;13.47;47.11;100601.75;5080962;28;20020;-82
2022/04/18 09:23:42;;;;;;;4.90;3.03;;;;;;;13.72;48.20;100598.16;5080883;28;20068;-82
2022/04/18 09:26:08;;;;;;;7.65;3.00;;;;;;;13.79;47.81;100582.69;5059878;28;20036;-83
2022/04/18 09:28:40;;;;;;;5.28;2.90;;;;;;;14.02;46.32;100583.59;5100097;28;20161;-82
2022/04/18 09:31:12;;;;;;;4.50;2.80;;;;;;;14.31;43.93;100594.09;5081079;28;20024;-82
2022/04/18 09:33:38;;;;;;;4.93;3.10;;;;;;;14.25;44.45;100589.00;5081182;28;20473;-82
2022/04/18 09:36:24;;;;;;;7.70;3.50;;;;;;;14.47;43.79;100583.59;5081472;28;20035;-82
2022/04/18 09:38:51;;;;;;;7.55;3.40;;;;;;;14.74;45.26;100587.88;5081281;28;20265;-82
2022/04/18 09:41:29;;;;;;;5.88;3.17;;;;;;;14.53;40.55;100587.84;5081156;28;20437;-83
2022/04/18 09:43:56;;;;;;;4.72;2.80;;;;;;;14.67;39.35;100589.94;5081272;28;20020;-82
2022/04/18 09:46:22;;;;;;;4.78;2.63;;;;;;;14.83;41.70;100582.09;5099129;28;20103;-83
2022/04/18 09:48:49;;;;;;;5.43;2.70;;;;;;;14.98;42.13;100571.63;5080463;28;20024;-82
2022/04/18 09:51:16;;;;;;;4.32;2.65;;;;;;;15.30;42.93;100579.22;5081161;28;20024;-82
2022/04/18 09:53:45;;;;;;;3.90;2.60;;;;;;;15.34;38.75;100588.00;5078433;28;20031;-82
2022/04/18 09:56:15;;;;;;;6.68;3.35;;;;;;;15.51;40.51;100576.47;5079320;28;20055;-83
2022/04/18 09:58:41;;;;;;;5.07;2.75;;;;;;;15.19;37.23;100580.56;5080167;28;20012;-82
2022/04/18 10:01:07;;;;;;;4.15;2.28;;;;;;;15.58;38.85;100574.38;5080402;28;20442;-82
2022/04/18 10:03:34;;;;;;;4.60;2.72;;;;;;;15.87;37.18;100572.13;5080342;28;20024;-82
2022/04/18 10:06:01;;;;;;;5.05;2.45;;;;;;;16.03;38.50;100566.84;5098220;28;20099;-82
2022/04/18 10:08:28;;;;;;;4.35;2.58;;;;;;;16.05;37.85;100572.22;5098090;28;20020;-83
2022/04/18 10:10:56;;;;;;;4.32;2.38;;;;;;;16.31;36.93;100567.38;5080341;28;20024;-82
2022/04/18 10:13:21;;;;;;;4.35;2.30;;;;;;;16.61;34.95;100558.66;5080142;28;20031;-82
2022/04/18 10:15:49;;;;;;;4.25;2.47;;;;;;;16.71;34.19;100559.06;5080026;28;20043;-83
2022/04/18 10:18:15;;;;;;;5.07;2.30;;;;;;;16.16;33.49;100553.69;5078854;28;20396;-83
2022/04/18 10:20:57;;;;;;;5.00;2.45;;;;;;;15.94;32.64;100553.84;5097177;28;20028;-82
2022/04/18 10:23:38;;;;;;;4.63;2.58;;;;;;;16.77;35.97;100547.09;5098404;28;20020;-82
2022/04/18 10:26:12;;;;;;;7.03;2.25;;;;;;;16.99;36.08;100551.34;5097465;28;20020;-83
2022/04/18 10:28:42;;;;;;;2.65;1.50;;;;;;;16.63;31.90;100555.88;5096521;28;20430;-82
2022/04/18 10:31:31;;;;;;;2.58;1.45;;;;;;;16.86;31.34;100541.22;5078318;28;20037;-82
2022/04/18 10:33:57;;;;;;;4.50;2.30;;;;;;;16.77;32.64;100541.69;5078341;28;20020;-83
2022/04/18 10:36:31;;;;;;;4.30;2.35;;;;;;;16.96;32.61;100536.19;5080643;28;20384;-83
2022/04/18 10:39:00;;;;;;;4.18;2.10;;;;;;;17.44;33.32;100534.63;5079599;28;20074;-83
2022/04/18 10:41:42;;;;;;;4.28;1.80;;;;;;;17.52;33.89;100537.72;5079296;28;20024;-83
2022/04/18 10:44:10;;;;;;;2.95;1.67;;;;;;;17.35;29.39;100535.09;5079167;28;20028;-83
2022/04/18 10:46:49;;;;;;;4.32;1.75;;;;;;;17.18;32.12;100534.22;5079198;28;20016;-83
2022/04/18 10:49:17;;;;;;;5.90;2.00;;;;;;;17.46;32.40;100521.91;5079430;28;20035;-82
2022/04/18 10:51:44;;;;;;;3.55;2.15;;;;;;;17.13;32.97;100514.66;5080237;28;20039;-82
2022/04/18 10:54:18;;;;;;;4.10;1.77;;;;;;;17.07;30.13;100527.53;5080009;28;20027;-83
2022/04/18 10:57:02;;;;;;;3.42;1.70;;;;;;;17.38;30.24;100518.75;5097746;28;20028;-83
2022/04/18 10:59:36;;;;;;;3.08;1.70;;;;;;;16.98;30.60;100511.84;5079823;28;20073;-83
2022/04/18 11:02:04;;;;;;;4.60;2.08;;;;;;;16.74;30.81;100515.78;5080184;28;20107;-82
2022/04/18 11:04:47;;;;;;;3.38;1.90;;;;;;;17.56;32.67;100516.84;5079036;28;20031;-83
2022/04/18 11:07:13;;;;;;;4.40;2.05;;;;;;;17.56;30.26;100510.56;5096192;28;20388;-83
2022/04/18 11:09:44;;;;;;;3.95;2.00;;;;;;;17.56;29.50;100507.88;5095182;28;20565;-82
2022/04/18 11:12:17;;;;;;;3.17;1.75;;;;;;;18.09;30.58;100504.91;5096959;28;20052;-84
2022/04/18 11:14:54;;;;;;;3.47;1.52;;;;;;;17.62;29.31;100505.72;5079975;28;20463;-83
2022/04/18 11:17:30;;;;;;;3.22;1.60;;;;;;;18.19;29.84;100497.97;5098672;28;20040;-83
2022/04/18 11:19:57;;;;;;;2.65;1.60;;;;;;;18.15;32.12;100501.81;5080916;28;20384;-83
2022/04/18 11:22:24;;;;;;;4.05;2.00;;;;;;;18.06;30.14;100500.56;5099047;28;20508;-83
2022/04/18 11:24:49;;;;;;;3.22;1.70;;;;;;;18.19;30.47;100503.38;5081050;28;20024;-83
2022/04/18 11:27:28;;;;;;;3.13;1.70;;;;;;;17.84;29.06;100498.19;5081164;28;20059;-83
2022/04/18 11:29:54;;;;;;;2.47;1.75;;;;;;;18.01;29.99;100489.16;5079945;28;20031;-83
2022/04/18 11:32:31;;;;;;;4.07;1.50;;;;;;;17.80;29.11;100491.25;5079756;28;20114;-83
2022/04/18 11:34:59;;;;;;;2.50;1.45;;;;;;;18.02;27.53;100484.59;5081253;28;20020;-82
2022/04/18 11:37:36;;;;;;;2.03;1.30;;;;;;;18.06;29.47;100487.03;5083169;28;20062;-84
2022/04/18 11:40:08;;;;;;;3.22;1.55;;;;;;;17.95;27.88;100484.97;5081590;28;20026;-83
2022/04/18 11:42:34;;;;;;;3.03;1.35;;;;;;;17.84;28.45;100484.69;5096092;28;20024;-82